Terminal Aerodrome Forecast
Issued by NWS

Home | Current Version | Previous Version | Graphics & Text | Print | Product List | Glossary On
Versions: 1 2 3 4 5 6 7 8 9 10 11 12
911
FTUS43 KBIS 262331
TAFMOT
TAF
KMOT 262331Z 2700/2724 01013KT P6SM SCT250
     FM270200 05008KT P6SM FEW200
     FM270800 35005KT P6SM FEW120
     FM271600 01009KT P6SM SKC=

USA.gov is the U.S. government's official web portal to all federal, state and local government web resources and services.